KBKW/BKW METAR and TAF weather

Enter ICAO airport designator
Station Type Date Time Source
KBKW METAR 2018/10/16 19:51 UTC NOAA

KBKW 161951Z AUTO 00000KT 1/4SM FG VV002 09/08 A3018 RMK AO2 SLP220 T00890078 TSNO


Station Type Date Time Source
KBKW Decoded METAR 2018/10/16 19:51 UTC NOAA

RALEIGH COUNTY MEM AIRPORT , WV, United States (KBKW) 37-48N 081-07W 764M
Oct 16, 2018 - 03:51 PM EDT / 2018.10.16 1951 UTC
Wind: Calm:0
Visibility: 1/4 mile(s):0
Sky conditions: obscured
Weather: fog
Temperature: 48.0 F (8.9 C)
Dew Point: 46.0 F (7.8 C)
Relative Humidity: 92%
Pressure (altimeter): 30.18 in. Hg (1022 hPa)
ob: KBKW 161951Z AUTO 00000KT 1/4SM FG VV002 09/08 A3018 RMK AO2 SLP220 T00890078 TSNO
cycle: 20

Station Type Date Time Source
KBKW TAF 2018/10/16 20:16 UTC NOAA

TAF
AMD KBKW 162014Z 1620/1718 VRB03KT 1/4SM FG OVC002
FM162100 VRB04KT 2SM BR BKN005
FM162200 VRB03KT P6SM SCT005 SCT015
FM170100 27004KT P6SM SCT250
FM170600 29006KT P6SM BKN035
FM171600 29014G21KT P6SM SKC


Example: see airport list